Time;durP1;ratioP1;P1;durP2;ratioP2;P2;SDS_P1;SDS_P2;PMS_P1;PMS_P2;Temp;Humidity;BMP_temperature;BMP_pressure;BME280_temperature;BME280_humidity;BME280_pressure;Samples;Min_cycle;Max_cycle;Signal;HPM_P1;HPM_P2
2023/12/14 00:00:54;;;;;;;5.00;4.38;;;;;;;;;;5037634;28;20052;-58
2023/12/14 00:03:20;;;;;;;4.43;3.75;;;;;;;;;;5044830;28;20459;-57
2023/12/14 00:05:46;;;;;;;5.18;3.30;;;;;;;;;;5047181;28;20456;-57
2023/12/14 00:08:12;;;;;;;3.58;3.28;;;;;;;;;;5046274;28;20159;-57
2023/12/14 00:10:38;;;;;;;3.33;3.03;;;;;;;;;;5046666;28;20045;-57
2023/12/14 00:13:06;;;;;;;3.45;3.15;;;;;;;;;;5046965;28;20512;-58
2023/12/14 00:15:32;;;;;;;4.50;2.95;;;;;;;;;;5046642;28;20045;-58
2023/12/14 00:17:58;;;;;;;4.35;3.45;;;;;;;;;;5046816;28;20484;-58
2023/12/14 00:20:24;;;;;;;6.28;3.63;;;;;;;;;;5046706;28;20120;-57
2023/12/14 00:22:50;;;;;;;4.22;3.67;;;;;;;;;;5046094;28;20124;-57
2023/12/14 00:25:16;;;;;;;4.15;3.47;;;;;;;;;;5046292;28;20033;-58
2023/12/14 00:27:42;;;;;;;4.30;3.80;;;;;;;;;;5046085;28;20122;-57
2023/12/14 00:30:08;;;;;;;6.95;4.18;;;;;;;;;;5046537;28;20100;-58
2023/12/14 00:32:35;;;;;;;4.93;3.67;;;;;;;;;;5046453;28;20516;-58
2023/12/14 00:35:01;;;;;;;3.80;3.35;;;;;;;;;;5044309;28;20400;-58
2023/12/14 00:37:27;;;;;;;4.03;3.60;;;;;;;;;;5046256;28;20041;-57
2023/12/14 00:39:54;;;;;;;3.38;3.08;;;;;;;;;;5043636;28;20037;-57
2023/12/14 00:42:20;;;;;;;4.07;3.40;;;;;;;;;;5043719;28;20112;-57
2023/12/14 00:44:46;;;;;;;5.15;3.58;;;;;;;;;;5045501;28;20584;-57
2023/12/14 00:47:13;;;;;;;4.78;3.45;;;;;;;;;;5044117;28;20068;-58
2023/12/14 00:49:39;;;;;;;5.25;4.28;;;;;;;;;;5045414;28;20041;-57
2023/12/14 00:52:05;;;;;;;4.60;4.15;;;;;;;;;;5045889;28;20382;-58
2023/12/14 00:54:31;;;;;;;3.58;3.28;;;;;;;;;;5044782;28;20041;-57
2023/12/14 00:56:57;;;;;;;4.20;3.05;;;;;;;;;;5045475;28;20124;-58
2023/12/14 00:59:23;;;;;;;4.35;3.30;;;;;;;;;;5045697;28;20214;-58
2023/12/14 01:01:49;;;;;;;6.47;4.30;;;;;;;;;;5046085;28;20691;-57
2023/12/14 01:04:15;;;;;;;5.32;4.03;;;;;;;;;;5045247;28;20052;-58
2023/12/14 01:06:41;;;;;;;3.60;3.30;;;;;;;;;;5045428;28;20032;-58
2023/12/14 01:09:08;;;;;;;5.13;2.90;;;;;;;;;;5045811;28;20124;-57
2023/12/14 01:11:34;;;;;;;3.33;3.03;;;;;;;;;;5045128;28;20045;-58
2023/12/14 01:14:00;;;;;;;4.10;3.60;;;;;;;;;;5045604;28;20037;-57
2023/12/14 01:16:27;;;;;;;3.90;3.45;;;;;;;;;;5045511;28;20044;-58
2023/12/14 01:18:53;;;;;;;4.35;3.63;;;;;;;;;;5044913;28;20084;-58
2023/12/14 01:21:19;;;;;;;3.50;3.20;;;;;;;;;;5045550;28;20122;-57
2023/12/14 01:23:45;;;;;;;4.30;3.60;;;;;;;;;;5044291;28;20043;-58
2023/12/14 01:26:11;;;;;;;3.38;3.00;;;;;;;;;;5044815;28;20045;-59
2023/12/14 01:28:37;;;;;;;5.65;3.70;;;;;;;;;;5042724;28;20083;-57
2023/12/14 01:31:03;;;;;;;5.28;4.28;;;;;;;;;;5045266;28;20033;-58
2023/12/14 01:33:29;;;;;;;6.65;5.00;;;;;;;;;;5045286;28;20041;-57
2023/12/14 01:35:55;;;;;;;6.10;4.40;;;;;;;;;;5045386;28;20036;-58
2023/12/14 01:38:21;;;;;;;5.88;4.43;;;;;;;;;;5044739;28;20049;-58
2023/12/14 01:40:47;;;;;;;6.90;4.60;;;;;;;;;;5045327;28;20124;-57
2023/12/14 01:43:13;;;;;;;5.72;3.95;;;;;;;;;;5045274;28;20036;-58
2023/12/14 01:45:39;;;;;;;4.53;3.90;;;;;;;;;;5043665;28;20049;-57
2023/12/14 01:48:05;;;;;;;3.85;3.55;;;;;;;;;;5043275;28;20053;-58
2023/12/14 01:50:31;;;;;;;4.68;3.20;;;;;;;;;;5045876;28;20045;-58
2023/12/14 01:52:57;;;;;;;5.60;4.13;;;;;;;;;;5045128;28;20037;-57
2023/12/14 01:55:25;;;;;;;8.25;4.45;;;;;;;;;;5046101;28;20083;-57
2023/12/14 01:57:51;;;;;;;4.35;3.95;;;;;;;;;;5077863;28;20060;-58
2023/12/14 02:00:27;;;;;;;5.80;4.80;;;;;;;;;;5045331;28;20041;-57
2023/12/14 02:02:53;;;;;;;4.90;3.70;;;;;;;;;;5045038;28;20055;-58
2023/12/14 02:05:19;;;;;;;5.00;3.42;;;;;;;;;;5043977;28;20496;-57
2023/12/14 02:07:45;;;;;;;4.45;3.83;;;;;;;;;;5044893;28;20041;-57
2023/12/14 02:10:11;;;;;;;4.53;3.55;;;;;;;;;;5045502;28;20045;-58
2023/12/14 02:12:37;;;;;;;4.15;3.40;;;;;;;;;;5045162;28;20040;-57
2023/12/14 02:15:03;;;;;;;6.05;4.00;;;;;;;;;;5044929;28;20044;-58
2023/12/14 02:17:28;;;;;;;5.18;4.68;;;;;;;;;;5045245;28;20098;-58
2023/12/14 02:19:54;;;;;;;6.43;4.20;;;;;;;;;;5045024;28;20480;-57
2023/12/14 02:22:20;;;;;;;6.00;4.82;;;;;;;;;;5044876;28;20161;-57
2023/12/14 02:24:46;;;;;;;4.20;3.80;;;;;;;;;;5042641;28;20037;-58
2023/12/14 02:27:12;;;;;;;5.45;4.38;;;;;;;;;;5043766;28;20052;-58
2023/12/14 02:29:40;;;;;;;4.00;3.55;;;;;;;;;;5039769;28;20051;-58
2023/12/14 02:32:06;;;;;;;4.72;3.70;;;;;;;;;;5043296;28;20082;-58
2023/12/14 02:34:32;;;;;;;4.47;3.55;;;;;;;;;;5043787;28;20036;-57
2023/12/14 02:36:58;;;;;;;5.25;4.25;;;;;;;;;;5044163;28;20036;-58
2023/12/14 02:39:24;;;;;;;5.43;3.80;;;;;;;;;;5045031;28;20036;-58
2023/12/14 02:41:50;;;;;;;4.55;4.15;;;;;;;;;;5043812;28;20072;-58
2023/12/14 02:44:16;;;;;;;5.13;4.63;;;;;;;;;;5044860;28;20045;-57
2023/12/14 02:46:42;;;;;;;5.85;4.13;;;;;;;;;;5044260;28;20550;-57
2023/12/14 02:49:08;;;;;;;5.75;4.38;;;;;;;;;;5041516;28;20040;-58
2023/12/14 02:51:34;;;;;;;4.78;4.20;;;;;;;;;;5039234;28;20041;-57
2023/12/14 02:54:00;;;;;;;3.38;3.08;;;;;;;;;;5036832;28;20040;-58
2023/12/14 02:56:26;;;;;;;6.25;4.05;;;;;;;;;;5035060;28;20124;-57
2023/12/14 02:58:53;;;;;;;5.55;4.15;;;;;;;;;;5039849;28;20033;-58
2023/12/14 03:01:21;;;;;;;3.83;3.38;;;;;;;;;;5044397;28;20041;-57
2023/12/14 03:03:47;;;;;;;4.25;3.72;;;;;;;;;;5044579;28;20051;-57
2023/12/14 03:06:13;;;;;;;5.68;3.70;;;;;;;;;;5043684;28;20055;-57
2023/12/14 03:08:39;;;;;;;4.15;3.20;;;;;;;;;;5043681;28;20112;-57
2023/12/14 03:11:05;;;;;;;6.00;4.40;;;;;;;;;;5041883;28;20124;-57
2023/12/14 03:13:31;;;;;;;4.80;4.30;;;;;;;;;;5044007;28;20033;-58
2023/12/14 03:15:57;;;;;;;7.20;4.65;;;;;;;;;;5044196;28;20410;-57
2023/12/14 03:18:24;;;;;;;7.38;4.35;;;;;;;;;;5043349;28;20067;-58
2023/12/14 03:20:50;;;;;;;8.02;4.53;;;;;;;;;;5043425;28;20628;-58
2023/12/14 03:23:16;;;;;;;6.15;4.85;;;;;;;;;;5041302;28;20048;-58
2023/12/14 03:25:42;;;;;;;5.32;4.25;;;;;;;;;;5041912;28;20049;-57
2023/12/14 03:28:09;;;;;;;5.63;3.75;;;;;;;;;;5043860;28;20136;-57
2023/12/14 03:30:35;;;;;;;5.85;4.28;;;;;;;;;;5043253;28;20052;-58
2023/12/14 03:33:01;;;;;;;5.93;4.28;;;;;;;;;;5041546;28;20107;-57
2023/12/14 03:35:27;;;;;;;5.88;3.90;;;;;;;;;;5044492;28;20037;-58
2023/12/14 03:37:53;;;;;;;5.30;4.25;;;;;;;;;;5041395;28;20052;-58
2023/12/14 03:40:19;;;;;;;4.70;4.05;;;;;;;;;;5047708;28;20177;-57
2023/12/14 03:42:45;;;;;;;5.85;4.30;;;;;;;;;;5047253;28;20047;-58
2023/12/14 03:45:11;;;;;;;5.63;4.32;;;;;;;;;;5046536;28;20461;-58
2023/12/14 03:47:37;;;;;;;4.82;4.20;;;;;;;;;;5047433;28;20083;-57
2023/12/14 03:50:03;;;;;;;5.90;4.65;;;;;;;;;;5047966;28;20120;-57
2023/12/14 03:52:31;;;;;;;6.68;4.65;;;;;;;;;;5046288;28;20048;-57
2023/12/14 03:54:57;;;;;;;9.10;5.50;;;;;;;;;;5046087;28;20501;-58
2023/12/14 03:57:23;;;;;;;5.38;4.40;;;;;;;;;;5047163;28;20079;-57
2023/12/14 03:59:49;;;;;;;5.72;4.70;;;;;;;;;;5046649;28;20075;-57
2023/12/14 04:02:15;;;;;;;9.95;5.18;;;;;;;;;;5047309;28;20048;-57
2023/12/14 04:04:41;;;;;;;7.50;5.20;;;;;;;;;;5047268;28;20040;-57
2023/12/14 04:07:07;;;;;;;4.75;4.20;;;;;;;;;;5045276;28;20076;-58
2023/12/14 04:09:33;;;;;;;6.55;4.45;;;;;;;;;;5046443;28;20072;-57
2023/12/14 04:11:59;;;;;;;6.15;4.97;;;;;;;;;;5047011;28;20416;-57
2023/12/14 04:14:25;;;;;;;5.07;4.60;;;;;;;;;;5047130;28;20090;-58
2023/12/14 04:16:50;;;;;;;5.03;4.15;;;;;;;;;;5047375;28;20049;-58
2023/12/14 04:19:17;;;;;;;6.00;4.60;;;;;;;;;;5046802;28;20064;-58
2023/12/14 04:21:42;;;;;;;8.13;5.53;;;;;;;;;;5046146;28;20045;-58
2023/12/14 04:24:09;;;;;;;8.68;6.53;;;;;;;;;;5046715;28;20147;-57
2023/12/14 04:26:35;;;;;;;6.10;5.07;;;;;;;;;;5046968;28;20041;-58
2023/12/14 04:29:01;;;;;;;7.20;5.38;;;;;;;;;;5046541;28;20095;-58
2023/12/14 04:31:27;;;;;;;7.03;5.30;;;;;;;;;;5046727;28;20045;-58
2023/12/14 04:33:53;;;;;;;5.85;5.25;;;;;;;;;;5046366;28;20378;-58
2023/12/14 04:36:19;;;;;;;7.28;5.50;;;;;;;;;;5046621;28;20043;-57
2023/12/14 04:38:46;;;;;;;6.85;5.03;;;;;;;;;;5045237;28;20037;-57
2023/12/14 04:41:12;;;;;;;5.35;4.60;;;;;;;;;;5045635;28;20488;-57
2023/12/14 04:43:38;;;;;;;5.32;4.45;;;;;;;;;;5046340;28;20041;-57
2023/12/14 04:46:06;;;;;;;6.50;5.65;;;;;;;;;;5046499;28;20049;-57
2023/12/14 04:48:32;;;;;;;8.80;4.90;;;;;;;;;;5044454;28;20103;-58
2023/12/14 04:50:58;;;;;;;6.25;4.43;;;;;;;;;;5046484;28;20036;-57
2023/12/14 04:53:24;;;;;;;5.18;4.45;;;;;;;;;;5044260;28;20047;-57
2023/12/14 04:55:50;;;;;;;4.75;4.18;;;;;;;;;;5045314;28;20043;-57
2023/12/14 04:58:16;;;;;;;7.47;4.68;;;;;;;;;;5046121;28;20503;-57
2023/12/14 05:00:42;;;;;;;5.60;4.10;;;;;;;;;;5045917;28;20064;-58
2023/12/14 05:03:08;;;;;;;4.15;3.75;;;;;;;;;;5045205;28;20049;-57
2023/12/14 05:05:34;;;;;;;5.97;4.32;;;;;;;;;;5046028;28;20037;-57
2023/12/14 05:08:00;;;;;;;5.28;3.85;;;;;;;;;;5045111;28;20045;-57
2023/12/14 05:10:26;;;;;;;5.45;3.97;;;;;;;;;;5044936;28;20122;-58
2023/12/14 05:12:52;;;;;;;5.68;4.28;;;;;;;;;;5045539;28;20029;-57
2023/12/14 05:15:18;;;;;;;5.88;4.13;;;;;;;;;;5043579;28;20563;-57
2023/12/14 05:17:45;;;;;;;3.38;3.08;;;;;;;;;;5041031;28;20044;-57
2023/12/14 05:20:11;;;;;;;3.58;3.08;;;;;;;;;;5045744;28;20052;-58
2023/12/14 05:22:37;;;;;;;4.70;4.20;;;;;;;;;;5046460;28;20139;-57
2023/12/14 05:25:04;;;;;;;6.80;4.68;;;;;;;;;;5046956;28;20048;-57
2023/12/14 05:27:30;;;;;;;4.68;4.15;;;;;;;;;;5047065;28;20218;-57
2023/12/14 05:29:56;;;;;;;4.40;3.88;;;;;;;;;;5046317;28;20037;-58
2023/12/14 05:32:22;;;;;;;4.03;3.38;;;;;;;;;;5046223;28;20056;-58
2023/12/14 05:34:48;;;;;;;5.70;3.67;;;;;;;;;;5046834;28;20045;-57
2023/12/14 05:37:14;;;;;;;5.25;3.72;;;;;;;;;;5045922;28;20075;-57
2023/12/14 05:39:43;;;;;;;4.35;3.95;;;;;;;;;;5046282;28;20150;-57
2023/12/14 05:42:09;;;;;;;3.83;3.42;;;;;;;;;;5047168;28;20091;-57
2023/12/14 05:44:35;;;;;;;5.47;4.93;;;;;;;;;;5046179;28;20412;-57
2023/12/14 05:47:01;;;;;;;5.13;4.13;;;;;;;;;;5046755;28;20060;-57
2023/12/14 05:49:27;;;;;;;5.10;4.45;;;;;;;;;;5046902;28;20033;-57
2023/12/14 05:51:53;;;;;;;5.60;4.20;;;;;;;;;;5046226;28;20037;-58
2023/12/14 05:54:19;;;;;;;5.43;4.03;;;;;;;;;;5046557;28;20126;-58
2023/12/14 05:56:45;;;;;;;4.75;4.22;;;;;;;;;;5044662;28;20048;-57
2023/12/14 05:59:11;;;;;;;5.07;4.57;;;;;;;;;;5045790;28;20049;-57
2023/12/14 06:01:37;;;;;;;3.53;3.22;;;;;;;;;;5046781;28;20133;-57
2023/12/14 06:04:03;;;;;;;4.53;3.75;;;;;;;;;;5046809;28;20076;-57
2023/12/14 06:06:29;;;;;;;3.35;2.78;;;;;;;;;;5045703;28;20047;-57
2023/12/14 06:08:55;;;;;;;3.17;2.92;;;;;;;;;;5045470;28;20033;-58
2023/12/14 06:11:21;;;;;;;5.10;3.55;;;;;;;;;;5043422;28;20572;-57
2023/12/14 06:13:47;;;;;;;3.72;3.03;;;;;;;;;;5041447;28;20367;-57
2023/12/14 06:16:13;;;;;;;4.75;3.38;;;;;;;;;;5044649;28;20040;-58
2023/12/14 06:18:41;;;;;;;3.55;2.80;;;;;;;;;;5044446;28;20049;-57
2023/12/14 06:21:08;;;;;;;4.95;3.70;;;;;;;;;;5044025;28;20040;-58
2023/12/14 06:23:35;;;;;;;5.07;3.33;;;;;;;;;;5043717;28;20494;-57
2023/12/14 06:26:03;;;;;;;4.57;3.03;;;;;;;;;;5044953;28;20084;-57
2023/12/14 06:28:29;;;;;;;3.42;3.05;;;;;;;;;;5044116;28;20052;-58
2023/12/14 06:30:55;;;;;;;3.40;2.97;;;;;;;;;;5044836;28;20120;-58
2023/12/14 06:33:21;;;;;;;3.70;3.25;;;;;;;;;;5045130;28;20123;-57
2023/12/14 06:35:47;;;;;;;3.45;3.15;;;;;;;;;;5040708;28;20679;-57
2023/12/14 06:38:13;;;;;;;3.88;3.45;;;;;;;;;;5044392;28;20047;-58
2023/12/14 06:40:39;;;;;;;6.22;3.95;;;;;;;;;;5043573;28;20822;-57
2023/12/14 06:43:05;;;;;;;4.00;3.15;;;;;;;;;;5044472;28;20136;-57
2023/12/14 06:45:31;;;;;;;4.80;3.42;;;;;;;;;;5041724;28;20520;-58
2023/12/14 06:47:57;;;;;;;3.08;2.63;;;;;;;;;;5041889;28;20045;-57
2023/12/14 06:50:23;;;;;;;2.97;2.67;;;;;;;;;;5041818;28;20044;-57
2023/12/14 06:52:49;;;;;;;2.97;2.67;;;;;;;;;;5043933;28;20131;-57
2023/12/14 06:55:15;;;;;;;2.90;2.60;;;;;;;;;;5043280;28;20182;-57
2023/12/14 06:57:46;;;;;;;2.80;2.53;;;;;;;;;;5043857;28;20164;-57
2023/12/14 07:00:13;;;;;;;3.60;2.20;;;;;;;;;;5042191;28;20124;-57
2023/12/14 07:02:39;;;;;;;2.33;1.90;;;;;;;;;;5042962;28;20389;-58
2023/12/14 07:05:05;;;;;;;2.50;2.30;;;;;;;;;;5044206;28;20033;-58
2023/12/14 07:07:31;;;;;;;2.60;2.10;;;;;;;;;;5043887;28;20076;-58
2023/12/14 07:09:57;;;;;;;3.72;2.78;;;;;;;;;;5042728;28;20397;-56
2023/12/14 07:12:23;;;;;;;4.15;2.60;;;;;;;;;;5044233;28;20076;-57
2023/12/14 07:14:49;;;;;;;3.55;2.78;;;;;;;;;;5043804;28;20705;-58
2023/12/14 07:17:15;;;;;;;3.88;2.58;;;;;;;;;;5042955;28;20044;-58
2023/12/14 07:19:41;;;;;;;3.13;2.80;;;;;;;;;;5043297;28;20044;-57
2023/12/14 07:22:07;;;;;;;2.22;1.80;;;;;;;;;;5044070;28;20041;-58
2023/12/14 07:24:33;;;;;;;2.80;2.38;;;;;;;;;;5043009;28;20074;-58
2023/12/14 07:26:59;;;;;;;2.42;2.22;;;;;;;;;;5043747;28;20862;-58
2023/12/14 07:29:25;;;;;;;2.33;2.13;;;;;;;;;;5043722;28;20040;-58
2023/12/14 07:31:51;;;;;;;5.28;2.83;;;;;;;;;;5035558;28;20056;-59
2023/12/14 07:34:17;;;;;;;2.78;2.53;;;;;;;;;;5044145;28;20448;-58
2023/12/14 07:36:43;;;;;;;2.83;2.60;;;;;;;;;;5043245;28;20044;-59
2023/12/14 07:39:09;;;;;;;2.33;2.05;;;;;;;;;;5044982;28;20045;-59
2023/12/14 07:41:35;;;;;;;2.03;1.83;;;;;;;;;;5042960;28;20033;-59
2023/12/14 07:44:01;;;;;;;2.28;1.95;;;;;;;;;;5043561;28;20033;-58
2023/12/14 07:46:27;;;;;;;3.55;2.75;;;;;;;;;;5044259;28;20053;-59
2023/12/14 07:48:53;;;;;;;2.63;2.00;;;;;;;;;;5042812;28;20071;-60
2023/12/14 07:51:19;;;;;;;2.45;2.25;;;;;;;;;;5039918;28;20037;-58
2023/12/14 07:53:46;;;;;;;3.05;2.75;;;;;;;;;;5039749;28;20499;-58
2023/12/14 07:56:12;;;;;;;2.83;2.50;;;;;;;;;;5040850;28;20506;-59
2023/12/14 07:58:38;;;;;;;2.78;2.50;;;;;;;;;;5043503;28;20074;-59
2023/12/14 08:01:04;;;;;;;2.80;2.38;;;;;;;;;;5044528;28;20465;-59
2023/12/14 08:03:30;;;;;;;3.42;2.42;;;;;;;;;;5043693;28;20312;-58
2023/12/14 08:05:56;;;;;;;1.80;1.67;;;;;;;;;;5042134;28;20041;-59
2023/12/14 08:08:22;;;;;;;2.20;2.00;;;;;;;;;;5041508;28;20039;-54
2023/12/14 08:10:48;;;;;;;3.42;2.00;;;;;;;;;;5042303;28;20402;-56
2023/12/14 08:13:15;;;;;;;2.85;2.13;;;;;;;;;;5043118;28;20077;-53
2023/12/14 08:15:41;;;;;;;2.63;2.00;;;;;;;;;;5043649;28;20060;-61
2023/12/14 08:18:07;;;;;;;2.28;2.08;;;;;;;;;;5044281;28;20448;-59
2023/12/14 08:20:33;;;;;;;1.92;1.67;;;;;;;;;;5041010;28;20044;-60
2023/12/14 08:22:59;;;;;;;1.95;1.75;;;;;;;;;;5045874;28;20067;-60
2023/12/14 08:25:25;;;;;;;2.75;1.80;;;;;;;;;;5048428;28;20105;-60
2023/12/14 08:27:51;;;;;;;2.20;2.00;;;;;;;;;;5043745;28;20091;-60
2023/12/14 08:30:17;;;;;;;2.40;2.20;;;;;;;;;;5046279;28;20045;-60
2023/12/14 08:32:43;;;;;;;2.00;1.80;;;;;;;;;;5046558;28;20041;-60
2023/12/14 08:35:09;;;;;;;3.28;1.95;;;;;;;;;;5036136;28;20040;-60
2023/12/14 08:37:36;;;;;;;1.92;1.80;;;;;;;;;;5048293;28;20045;-59
2023/12/14 08:40:03;;;;;;;1.67;1.55;;;;;;;;;;5046760;28;20095;-60
2023/12/14 08:42:29;;;;;;;1.58;1.48;;;;;;;;;;5046996;28;20045;-60
2023/12/14 08:44:55;;;;;;;2.28;1.80;;;;;;;;;;5046768;28;20045;-60
2023/12/14 08:47:21;;;;;;;2.47;2.00;;;;;;;;;;5046162;28;20108;-59
2023/12/14 08:49:47;;;;;;;2.03;1.45;;;;;;;;;;5046814;28;20136;-60
2023/12/14 08:52:14;;;;;;;2.08;1.88;;;;;;;;;;5046604;28;20051;-59
2023/12/14 08:54:43;;;;;;;2.58;1.60;;;;;;;;;;5046315;28;20044;-60
2023/12/14 08:57:09;;;;;;;2.28;2.03;;;;;;;;;;5043754;28;20045;-60
2023/12/14 08:59:35;;;;;;;2.42;1.73;;;;;;;;;;5042007;28;20033;-60
2023/12/14 09:02:01;;;;;;;1.88;1.58;;;;;;;;;;5046234;28;20098;-60
2023/12/14 09:04:27;;;;;;;1.58;1.48;;;;;;;;;;5047604;28;20529;-59
2023/12/14 09:06:53;;;;;;;1.90;1.48;;;;;;;;;;5047202;28;20048;-60
2023/12/14 09:09:19;;;;;;;1.90;1.75;;;;;;;;;;5046834;28;20058;-60
2023/12/14 09:11:46;;;;;;;3.00;2.17;;;;;;;;;;5047202;28;20049;-60
2023/12/14 09:14:12;;;;;;;2.08;1.95;;;;;;;;;;5047310;28;20083;-62
2023/12/14 09:16:38;;;;;;;1.30;1.20;;;;;;;;;;5047202;28;20033;-60
2023/12/14 09:19:04;;;;;;;1.63;1.45;;;;;;;;;;5047290;28;20556;-58
2023/12/14 09:21:30;;;;;;;1.80;1.70;;;;;;;;;;5047406;28;20051;-58
2023/12/14 09:23:56;;;;;;;4.35;2.33;;;;;;;;;;5046062;28;20094;-58
2023/12/14 09:26:22;;;;;;;2.20;1.73;;;;;;;;;;5045397;28;20091;-58
2023/12/14 09:28:48;;;;;;;2.22;1.85;;;;;;;;;;5048418;28;20077;-58
2023/12/14 09:31:15;;;;;;;2.90;1.90;;;;;;;;;;5040954;28;20396;-59
2023/12/14 09:33:41;;;;;;;2.75;2.08;;;;;;;;;;5042986;28;20517;-58
2023/12/14 09:36:08;;;;;;;2.58;2.28;;;;;;;;;;5046904;28;20041;-59
2023/12/14 09:38:35;;;;;;;3.28;2.55;;;;;;;;;;5046452;28;20047;-59
2023/12/14 09:41:02;;;;;;;3.10;2.80;;;;;;;;;;5044576;28;20067;-59
2023/12/14 09:43:28;;;;;;;3.78;3.05;;;;;;;;;;5038547;28;20044;-59
2023/12/14 09:45:55;;;;;;;3.67;2.55;;;;;;;;;;5041635;28;20134;-59
2023/12/14 09:48:22;;;;;;;4.03;2.42;;;;;;;;;;5044129;28;20045;-59
2023/12/14 09:50:49;;;;;;;2.40;2.00;;;;;;;;;;5046129;28;20077;-58
2023/12/14 09:53:15;;;;;;;2.90;2.65;;;;;;;;;;5046581;28;20037;-59
2023/12/14 09:55:41;;;;;;;3.80;2.95;;;;;;;;;;5046513;28;20059;-59
2023/12/14 09:58:09;;;;;;;5.65;3.35;;;;;;;;;;5045827;28;20572;-59
2023/12/14 10:00:39;;;;;;;4.05;3.38;;;;;;;;;;5046025;28;20052;-59
2023/12/14 10:03:18;;;;;;;4.15;3.55;;;;;;;;;;5046211;28;20045;-59
2023/12/14 10:05:44;;;;;;;4.80;3.80;;;;;;;;;;5038250;28;20040;-61
2023/12/14 10:08:10;;;;;;;3.40;3.03;;;;;;;;;;5046498;28;20045;-59
2023/12/14 10:10:36;;;;;;;7.50;3.65;;;;;;;;;;5042360;28;20045;-59
2023/12/14 10:13:02;;;;;;;6.60;4.47;;;;;;;;;;5044943;28;20036;-60
2023/12/14 10:15:30;;;;;;;7.90;4.93;;;;;;;;;;5046173;28;20041;-60
2023/12/14 10:17:57;;;;;;;6.05;5.07;;;;;;;;;;5046063;28;20124;-59
2023/12/14 10:20:23;;;;;;;6.65;5.00;;;;;;;;;;5045734;28;20462;-59
2023/12/14 10:22:53;;;;;;;6.57;4.93;;;;;;;;;;5045799;28;20040;-58
2023/12/14 10:25:19;;;;;;;5.25;4.65;;;;;;;;;;5046053;28;20033;-58
2023/12/14 10:27:48;;;;;;;5.00;4.25;;;;;;;;;;5045374;28;20446;-60
2023/12/14 10:30:15;;;;;;;6.28;4.65;;;;;;;;;;5045778;28;20041;-59
2023/12/14 10:32:41;;;;;;;5.82;4.75;;;;;;;;;;5045282;28;20401;-59
2023/12/14 10:35:07;;;;;;;5.15;4.55;;;;;;;;;;5046296;28;20084;-60
2023/12/14 10:37:36;;;;;;;5.85;4.60;;;;;;;;;;5045798;28;20508;-54
2023/12/14 10:40:05;;;;;;;5.53;4.30;;;;;;;;;;5045586;28;20049;-59
2023/12/14 10:42:32;;;;;;;6.88;4.80;;;;;;;;;;5045800;28;20052;-59
2023/12/14 10:44:59;;;;;;;5.90;4.38;;;;;;;;;;5044739;28;20052;-59
2023/12/14 10:47:25;;;;;;;4.63;3.85;;;;;;;;;;5034415;28;20482;-58
2023/12/14 10:49:52;;;;;;;3.80;3.40;;;;;;;;;;5044178;28;20083;-58
2023/12/14 10:52:19;;;;;;;4.45;3.95;;;;;;;;;;5044191;28;20041;-60
2023/12/14 10:54:46;;;;;;;6.35;4.72;;;;;;;;;;5044636;28;20039;-60
2023/12/14 10:57:12;;;;;;;5.38;4.22;;;;;;;;;;5045471;28;20116;-60
2023/12/14 10:59:38;;;;;;;4.93;4.40;;;;;;;;;;5045634;28;20144;-61
2023/12/14 11:02:10;;;;;;;6.57;5.22;;;;;;;;;;5044796;28;20129;-60
2023/12/14 11:04:56;;;;;;;4.93;4.43;;;;;;;;;;5043516;28;20477;-61
2023/12/14 11:07:41;;;;;;;6.47;5.15;;;;;;;;;;5044839;28;20124;-61
2023/12/14 11:10:09;;;;;;;5.65;4.88;;;;;;;;;;5045546;28;20075;-60
2023/12/14 11:12:35;;;;;;;4.22;3.83;;;;;;;;;;5036934;28;20052;-60
2023/12/14 11:15:01;;;;;;;6.07;5.10;;;;;;;;;;5041327;28;20732;-58
2023/12/14 11:17:29;;;;;;;5.50;4.32;;;;;;;;;;5044669;28;20116;-58
2023/12/14 11:19:55;;;;;;;5.55;3.92;;;;;;;;;;5043600;28;20041;-60
2023/12/14 11:22:27;;;;;;;4.10;3.70;;;;;;;;;;5044489;28;20083;-58
2023/12/14 11:24:54;;;;;;;4.25;3.58;;;;;;;;;;5045206;28;20045;-58
2023/12/14 11:27:20;;;;;;;6.18;4.05;;;;;;;;;;5044995;28;20798;-58
2023/12/14 11:29:48;;;;;;;5.13;3.95;;;;;;;;;;5026608;28;20049;-58
2023/12/14 11:32:14;;;;;;;5.53;3.85;;;;;;;;;;5044417;28;20063;-58
2023/12/14 11:34:40;;;;;;;5.13;4.70;;;;;;;;;;5044084;28;20795;-58
2023/12/14 11:37:07;;;;;;;6.10;4.90;;;;;;;;;;5043734;28;20055;-58
2023/12/14 11:39:33;;;;;;;5.45;4.30;;;;;;;;;;5044157;28;20037;-58
2023/12/14 11:42:00;;;;;;;6.15;5.55;;;;;;;;;;5044035;28;20508;-58
2023/12/14 11:44:26;;;;;;;5.88;5.07;;;;;;;;;;5043730;28;20043;-58
2023/12/14 11:46:52;;;;;;;5.18;4.50;;;;;;;;;;5044332;28;20060;-58
2023/12/14 11:49:18;;;;;;;5.30;4.43;;;;;;;;;;5044866;28;20053;-58
2023/12/14 11:51:47;;;;;;;7.40;5.10;;;;;;;;;;5044332;28;20095;-58
2023/12/14 11:54:13;;;;;;;5.28;4.78;;;;;;;;;;5043553;28;20408;-58
2023/12/14 11:56:39;;;;;;;4.53;4.13;;;;;;;;;;5046447;28;20397;-58
2023/12/14 11:59:05;;;;;;;4.78;4.15;;;;;;;;;;5048736;28;20056;-58
2023/12/14 12:01:33;;;;;;;8.73;5.82;;;;;;;;;;5048916;28;20124;-58
2023/12/14 12:04:08;;;;;;;7.90;5.95;;;;;;;;;;5048174;28;20540;-58
2023/12/14 12:06:34;;;;;;;7.72;5.63;;;;;;;;;;5048575;28;20099;-58
2023/12/14 12:09:00;;;;;;;7.45;6.40;;;;;;;;;;5048381;28;20048;-58
2023/12/14 12:11:27;;;;;;;7.80;6.07;;;;;;;;;;5048016;28;20049;-58
2023/12/14 12:13:53;;;;;;;10.68;7.25;;;;;;;;;;5049002;28;20040;-58
2023/12/14 12:16:19;;;;;;;13.02;7.88;;;;;;;;;;5048816;28;20091;-58
2023/12/14 12:18:45;;;;;;;10.20;7.50;;;;;;;;;;5046300;28;20057;-58
2023/12/14 12:21:12;;;;;;;8.18;6.15;;;;;;;;;;5048459;28;20087;-58
2023/12/14 12:23:38;;;;;;;8.00;6.50;;;;;;;;;;5048362;28;20047;-58
2023/12/14 12:26:04;;;;;;;7.32;5.47;;;;;;;;;;5047664;28;20053;-58
2023/12/14 12:28:31;;;;;;;7.55;5.43;;;;;;;;;;5048148;28;20568;-60
2023/12/14 12:30:57;;;;;;;5.20;4.70;;;;;;;;;;5048244;28;20124;-59
2023/12/14 12:33:23;;;;;;;6.20;5.07;;;;;;;;;;5047648;28;20454;-60
2023/12/14 12:35:49;;;;;;;7.38;5.55;;;;;;;;;;5047804;28;20080;-59
2023/12/14 12:38:16;;;;;;;6.07;5.18;;;;;;;;;;5048231;28;20036;-59
2023/12/14 12:40:42;;;;;;;6.60;5.53;;;;;;;;;;5047379;28;20112;-59
2023/12/14 12:43:08;;;;;;;5.10;4.60;;;;;;;;;;5048305;28;20041;-59
2023/12/14 12:45:35;;;;;;;4.63;4.13;;;;;;;;;;5047867;28;20060;-59
2023/12/14 12:48:03;;;;;;;4.47;4.07;;;;;;;;;;5047273;28;20064;-59
2023/12/14 12:50:29;;;;;;;5.43;4.20;;;;;;;;;;5048113;28;20044;-60
2023/12/14 12:52:55;;;;;;;5.03;3.90;;;;;;;;;;5048116;28;20086;-59
2023/12/14 12:55:21;;;;;;;5.15;4.63;;;;;;;;;;5047478;28;20044;-59
2023/12/14 12:57:48;;;;;;;5.30;3.85;;;;;;;;;;5047810;28;20400;-59
2023/12/14 13:00:15;;;;;;;4.60;3.83;;;;;;;;;;5047158;28;20041;-60
2023/12/14 13:02:42;;;;;;;4.80;4.30;;;;;;;;;;5048135;28;20120;-59
2023/12/14 13:05:08;;;;;;;5.40;3.90;;;;;;;;;;5047965;28;20509;-59
2023/12/14 13:07:35;;;;;;;7.70;6.47;;;;;;;;;;5046113;28;20481;-59
2023/12/14 13:10:01;;;;;;;6.03;5.43;;;;;;;;;;5046248;28;20045;-60
2023/12/14 13:12:28;;;;;;;6.72;5.22;;;;;;;;;;5047503;28;20045;-61
2023/12/14 13:14:54;;;;;;;7.72;6.03;;;;;;;;;;5047162;28;20044;-59
2023/12/14 13:17:20;;;;;;;5.40;4.63;;;;;;;;;;5045968;28;20684;-60
2023/12/14 13:19:46;;;;;;;6.05;5.43;;;;;;;;;;5047468;28;20072;-59
2023/12/14 13:22:12;;;;;;;5.85;5.25;;;;;;;;;;5046806;28;20041;-60
2023/12/14 13:24:38;;;;;;;6.50;5.05;;;;;;;;;;5047301;28;20459;-59
2023/12/14 13:27:04;;;;;;;6.72;5.47;;;;;;;;;;5047072;28;20114;-59
2023/12/14 13:29:32;;;;;;;7.40;5.68;;;;;;;;;;5046464;28;20052;-60
2023/12/14 13:31:59;;;;;;;6.47;5.35;;;;;;;;;;5046850;28;20041;-60
2023/12/14 13:34:25;;;;;;;6.38;5.57;;;;;;;;;;5047388;28;20045;-59
2023/12/14 13:36:51;;;;;;;6.30;5.43;;;;;;;;;;5046418;28;20431;-59
2023/12/14 13:39:17;;;;;;;5.28;4.68;;;;;;;;;;5047210;28;20155;-59
2023/12/14 13:41:43;;;;;;;5.28;4.75;;;;;;;;;;5046830;28;20041;-59
2023/12/14 13:44:09;;;;;;;6.45;5.07;;;;;;;;;;5046440;28;20045;-60
2023/12/14 13:46:35;;;;;;;6.65;5.93;;;;;;;;;;5046758;28;20057;-60
2023/12/14 13:49:01;;;;;;;5.75;5.00;;;;;;;;;;5046596;28;20048;-59
2023/12/14 13:51:28;;;;;;;5.55;4.28;;;;;;;;;;5045878;28;20031;-60
2023/12/14 13:53:54;;;;;;;4.38;3.92;;;;;;;;;;5047019;28;20071;-60
2023/12/14 13:56:20;;;;;;;6.53;5.20;;;;;;;;;;5046772;28;20157;-60
2023/12/14 13:58:46;;;;;;;9.10;5.95;;;;;;;;;;5046133;28;20041;-60
2023/12/14 14:01:12;;;;;;;6.25;5.07;;;;;;;;;;5046622;28;20421;-60
2023/12/14 14:03:38;;;;;;;7.38;5.40;;;;;;;;;;5045928;28;20248;-59
2023/12/14 14:06:05;;;;;;;7.38;5.38;;;;;;;;;;5046325;28;20111;-60
2023/12/14 14:08:33;;;;;;;8.63;6.85;;;;;;;;;;5044801;28;21095;-60
2023/12/14 14:11:00;;;;;;;7.20;6.10;;;;;;;;;;5045690;28;20431;-59
2023/12/14 14:13:26;;;;;;;8.55;5.63;;;;;;;;;;5046435;28;20059;-60
2023/12/14 14:15:52;;;;;;;7.72;6.45;;;;;;;;;;5046297;28;20040;-60
2023/12/14 14:18:18;;;;;;;8.88;6.53;;;;;;;;;;5045444;28;20049;-60
2023/12/14 14:20:45;;;;;;;6.50;5.65;;;;;;;;;;5045831;28;20048;-60
2023/12/14 14:23:11;;;;;;;8.40;6.18;;;;;;;;;;5046340;28;20049;-60
2023/12/14 14:25:37;;;;;;;6.85;5.70;;;;;;;;;;5045969;28;20037;-60
2023/12/14 14:28:03;;;;;;;6.22;4.65;;;;;;;;;;5045904;28;20036;-59
2023/12/14 14:30:30;;;;;;;7.50;5.28;;;;;;;;;;5045925;28;20540;-60
2023/12/14 14:32:56;;;;;;;7.85;4.60;;;;;;;;;;5045257;28;20044;-60
2023/12/14 14:35:27;;;;;;;4.97;4.13;;;;;;;;;;5046219;28;20045;-59
2023/12/14 14:37:53;;;;;;;4.00;3.60;;;;;;;;;;5046440;28;20130;-60